createdAt,value
2022-11-17T00:01:42.056Z,2.28
2022-11-17T00:04:44.902Z,2.03
2022-11-17T00:07:46.451Z,2.22
2022-11-17T00:10:47.939Z,2.45
2022-11-17T00:14:08.044Z,2.17
2022-11-17T00:17:12.190Z,2.30
2022-11-17T00:20:32.364Z,2.47
2022-11-17T00:23:49.849Z,2.42
2022-11-17T00:27:03.628Z,2.38
2022-11-17T00:30:06.685Z,2.20
2022-11-17T00:33:27.583Z,2.10
2022-11-17T00:36:29.071Z,2.40
2022-11-17T00:39:30.648Z,1.92
2022-11-17T00:42:32.107Z,2.05
2022-11-17T00:45:33.571Z,2.10
2022-11-17T00:48:35.073Z,2.30
2022-11-17T00:51:37.258Z,2.20
2022-11-17T00:54:38.868Z,2.15
2022-11-17T00:57:40.421Z,2.10
2022-11-17T01:00:41.924Z,2.00
2022-11-17T01:03:43.985Z,2.08
2022-11-17T01:06:48.127Z,1.90
2022-11-17T01:09:49.630Z,2.10
2022-11-17T01:12:51.154Z,2.03
2022-11-17T01:15:52.672Z,2.03
2022-11-17T01:18:54.458Z,2.00
2022-11-17T01:21:56.228Z,2.10
2022-11-17T01:24:57.732Z,2.00
2022-11-17T01:27:59.220Z,2.10
2022-11-17T01:31:07.713Z,1.95
2022-11-17T01:34:10.110Z,2.00
2022-11-17T01:37:20.646Z,2.08
2022-11-17T01:40:22.115Z,1.90
2022-11-17T01:43:42.435Z,2.15
2022-11-17T01:46:44.072Z,2.20
2022-11-17T01:49:46.904Z,1.77
2022-11-17T01:52:50.988Z,2.03
2022-11-17T01:55:57.890Z,1.88
2022-11-17T01:59:08.104Z,2.10
2022-11-17T02:02:09.634Z,1.95
2022-11-17T02:05:48.252Z,1.88
2022-11-17T02:08:52.617Z,2.13
2022-11-17T02:11:58.627Z,1.83
2022-11-17T02:15:00.924Z,1.98
2022-11-17T02:18:02.827Z,1.95
2022-11-17T02:21:22.858Z,1.92
2022-11-17T02:24:24.293Z,2.00
2022-11-17T02:27:50.683Z,2.00
2022-11-17T02:31:14.116Z,2.00
2022-11-17T02:34:38.746Z,2.10
2022-11-17T02:37:47.352Z,2.00
2022-11-17T02:41:03.755Z,1.90
2022-11-17T02:44:23.446Z,2.08
2022-11-17T02:47:31.693Z,1.85
2022-11-17T02:50:34.788Z,2.00
2022-11-17T02:53:38.547Z,2.00
2022-11-17T02:56:41.927Z,1.70
2022-11-17T02:59:48.848Z,1.90
2022-11-17T03:03:18.135Z,1.98
2022-11-17T03:06:27.058Z,2.05
2022-11-17T03:10:01.215Z,1.83
2022-11-17T03:13:27.331Z,1.95
2022-11-17T03:16:55.417Z,1.80
2022-11-17T03:20:15.888Z,1.77
2022-11-17T03:23:41.691Z,1.90
2022-11-17T03:26:50.209Z,1.83
2022-11-17T03:29:57.691Z,1.80
2022-11-17T03:33:05.144Z,2.10
2022-11-17T03:36:12.745Z,1.70
2022-11-17T03:39:27.268Z,1.88
2022-11-17T03:42:32.392Z,1.80
2022-11-17T03:45:44.825Z,1.83
2022-11-17T03:49:03.647Z,1.88
2022-11-17T03:52:05.260Z,1.88
2022-11-17T03:55:08.052Z,1.70
2022-11-17T03:58:14.519Z,1.90
2022-11-17T04:01:16.769Z,1.77
2022-11-17T04:04:20.831Z,1.92
2022-11-17T04:07:22.378Z,1.80
2022-11-17T04:10:25.764Z,1.85
2022-11-17T04:13:45.852Z,1.70
2022-11-17T04:16:47.361Z,1.60
2022-11-17T04:19:48.837Z,2.00
2022-11-17T04:23:06.919Z,1.70
2022-11-17T04:26:28.552Z,1.70
2022-11-17T04:29:30.079Z,1.67
2022-11-17T04:32:31.536Z,1.70
2022-11-17T04:35:32.999Z,1.60
2022-11-17T04:38:34.559Z,1.65
2022-11-17T04:41:54.697Z,1.65
2022-11-17T04:44:56.207Z,1.63
2022-11-17T04:47:57.701Z,1.85
2022-11-17T04:50:59.163Z,1.60
2022-11-17T04:54:01.932Z,1.50
2022-11-17T04:57:03.562Z,1.48
2022-11-17T05:00:05.768Z,1.63
2022-11-17T05:03:07.327Z,1.60
2022-11-17T05:06:14.082Z,1.55
2022-11-17T05:09:17.055Z,1.55
2022-11-17T05:12:37.202Z,1.60
2022-11-17T05:15:57.228Z,1.58
2022-11-17T05:18:58.727Z,1.73
2022-11-17T05:22:01.401Z,1.60
2022-11-17T05:25:04.199Z,1.42
2022-11-17T05:28:05.688Z,1.50
2022-11-17T05:31:07.460Z,1.42
2022-11-17T05:34:12.300Z,1.60
2022-11-17T05:37:13.774Z,1.67
2022-11-17T05:40:15.633Z,1.63
2022-11-17T05:43:17.121Z,1.58
2022-11-17T05:46:19.865Z,1.48
2022-11-17T05:49:21.558Z,1.60
2022-11-17T05:52:23.073Z,1.70
2022-11-17T05:55:24.705Z,1.60
2022-11-17T05:58:30.704Z,1.80
2022-11-17T06:01:33.841Z,1.58
2022-11-17T06:04:35.481Z,1.60
2022-11-17T06:07:37.320Z,1.60
2022-11-17T06:10:38.899Z,1.50
2022-11-17T06:13:40.377Z,1.50
2022-11-17T06:16:45.546Z,1.52
2022-11-17T06:19:51.466Z,1.50
2022-11-17T06:22:53.021Z,1.60
2022-11-17T06:25:54.743Z,1.42
2022-11-17T06:28:56.906Z,1.23
2022-11-17T06:31:59.117Z,1.40
2022-11-17T06:35:03.262Z,1.38
2022-11-17T06:38:04.801Z,1.30
2022-11-17T06:41:11.619Z,1.30
2022-11-17T06:44:13.600Z,1.60
2022-11-17T06:47:15.124Z,1.40
2022-11-17T06:50:17.030Z,1.35
2022-11-17T06:53:18.631Z,1.20
2022-11-17T06:56:20.088Z,1.40
2022-11-17T06:59:21.605Z,1.35
2022-11-17T07:02:23.120Z,1.40
2022-11-17T07:05:24.686Z,1.25
2022-11-17T07:08:26.609Z,1.30
2022-11-17T07:11:28.180Z,1.30
2022-11-17T07:14:29.730Z,1.50
2022-11-17T07:17:32.003Z,1.40
2022-11-17T07:20:33.510Z,1.40
2022-11-17T07:23:35.276Z,1.40
2022-11-17T07:26:36.830Z,1.30
2022-11-17T07:29:38.286Z,1.42
2022-11-17T07:32:39.803Z,1.40
2022-11-17T07:35:41.320Z,1.20
2022-11-17T07:38:43.099Z,1.40
2022-11-17T07:41:45.055Z,1.20
2022-11-17T07:44:46.540Z,1.20
2022-11-17T07:48:02.473Z,1.50
2022-11-17T07:51:04.886Z,1.10
2022-11-17T07:54:06.444Z,1.30
2022-11-17T07:57:07.956Z,1.27
2022-11-17T08:00:10.363Z,1.48
2022-11-17T08:03:14.718Z,1.23
2022-11-17T08:06:16.945Z,1.27
2022-11-17T08:09:18.481Z,1.40
2022-11-17T08:12:19.967Z,1.35
2022-11-17T08:15:22.249Z,1.13
2022-11-17T08:18:23.819Z,1.50
2022-11-17T08:21:25.503Z,1.48
2022-11-17T08:24:27.017Z,1.30
2022-11-17T08:27:28.599Z,1.30
2022-11-17T08:30:32.329Z,1.40
2022-11-17T08:33:34.243Z,1.48
2022-11-17T08:36:35.880Z,1.40
2022-11-17T08:39:37.363Z,1.40
2022-11-17T08:42:38.911Z,1.40
2022-11-17T08:45:42.178Z,1.40
2022-11-17T08:48:43.686Z,1.40
2022-11-17T08:51:45.162Z,1.52
2022-11-17T08:54:46.741Z,1.40
2022-11-17T08:57:48.213Z,1.50
2022-11-17T09:00:49.798Z,1.40
2022-11-17T09:03:51.292Z,1.25
2022-11-17T09:06:52.878Z,1.30
2022-11-17T09:09:54.409Z,1.50
2022-11-17T09:12:56.992Z,1.60
2022-11-17T09:16:03.404Z,1.30
2022-11-17T09:19:05.204Z,1.40
2022-11-17T09:22:06.885Z,1.30
2022-11-17T09:25:13.114Z,1.35
2022-11-17T09:31:19.019Z,1.50
2022-11-17T09:34:20.614Z,1.42
2022-11-17T09:37:22.538Z,1.33
2022-11-17T09:40:24.011Z,1.30
2022-11-17T09:43:35.036Z,1.50
2022-11-17T09:46:44.805Z,1.45
2022-11-17T09:49:58.968Z,1.40
2022-11-17T09:53:10.239Z,1.45
2022-11-17T09:56:13.926Z,1.42
2022-11-17T09:59:20.274Z,1.52
2022-11-17T10:02:21.915Z,1.50
2022-11-17T10:05:30.202Z,1.40
2022-11-17T10:08:37.619Z,1.30
2022-11-17T10:11:42.269Z,1.40
2022-11-17T10:14:44.520Z,1.50
2022-11-17T10:17:46.087Z,1.42
2022-11-17T10:20:47.567Z,1.40
2022-11-17T10:23:59.664Z,1.35
2022-11-17T10:27:21.165Z,1.50
2022-11-17T10:30:24.122Z,1.63
2022-11-17T10:33:50.711Z,1.45
2022-11-17T10:36:52.227Z,1.30
2022-11-17T10:40:12.514Z,1.33
2022-11-17T10:43:14.068Z,1.40
2022-11-17T10:46:16.971Z,1.30
2022-11-17T10:49:27.316Z,1.40
2022-11-17T10:52:28.794Z,1.30
2022-11-17T10:55:33.948Z,1.40
2022-11-17T10:59:03.519Z,1.40
2022-11-17T11:02:40.595Z,1.45
2022-11-17T11:06:03.774Z,1.30
2022-11-17T11:09:13.219Z,1.30
2022-11-17T11:12:20.921Z,1.48
2022-11-17T11:15:25.006Z,1.50
2022-11-17T11:18:30.130Z,1.23
2022-11-17T11:21:52.502Z,1.38
2022-11-17T11:25:03.107Z,1.40
2022-11-17T11:28:46.349Z,1.40
2022-11-17T11:32:02.871Z,1.38
2022-11-17T11:35:23.114Z,1.30
2022-11-17T11:38:36.681Z,1.23
2022-11-17T11:41:50.363Z,1.50
2022-11-17T11:45:18.052Z,1.30
2022-11-17T11:48:33.756Z,1.33
2022-11-17T11:51:37.840Z,1.42
2022-11-17T11:54:50.592Z,1.40
2022-11-17T11:58:04.288Z,1.20
2022-11-17T12:01:08.187Z,1.30
2022-11-17T12:04:30.999Z,1.30
2022-11-17T12:07:44.312Z,1.40
2022-11-17T12:11:25.292Z,1.38
2022-11-17T12:14:32.375Z,1.27
2022-11-17T12:17:34.109Z,1.33
2022-11-17T12:20:38.328Z,1.38
2022-11-17T12:23:54.422Z,1.35
2022-11-17T12:27:31.216Z,1.50
2022-11-17T12:30:32.667Z,1.42
2022-11-17T12:33:52.465Z,1.60
2022-11-17T12:37:12.988Z,1.40
2022-11-17T12:40:39.393Z,1.50
2022-11-17T12:43:40.843Z,1.60
2022-11-17T12:46:47.880Z,2.00
2022-11-17T12:49:49.282Z,1.50
2022-11-17T12:53:09.091Z,1.60
2022-11-17T12:56:34.962Z,1.52
2022-11-17T13:00:02.739Z,1.50
2022-11-17T13:03:15.262Z,1.50
2022-11-17T13:09:38.342Z,2.67
2022-11-17T13:12:39.820Z,2.40
2022-11-17T13:15:43.188Z,2.38
2022-11-17T13:18:45.504Z,2.50
2022-11-17T13:21:47.008Z,2.38
2022-11-17T13:24:50.619Z,2.45
2022-11-17T13:27:56.225Z,2.55
2022-11-17T13:31:01.925Z,2.40
2022-11-17T13:34:12.806Z,2.50
2022-11-17T13:37:17.634Z,2.33
2022-11-17T13:40:19.818Z,2.47
2022-11-17T13:43:24.349Z,2.42
2022-11-17T13:46:26.040Z,1.92
2022-11-17T13:49:37.911Z,2.13
2022-11-17T13:52:46.549Z,2.00
2022-11-17T13:55:48.698Z,1.90
2022-11-17T13:58:51.648Z,2.05
2022-11-17T14:02:14.734Z,2.20
2022-11-17T14:05:23.167Z,1.88
2022-11-17T14:08:28.610Z,2.08
2022-11-17T14:11:30.383Z,1.80
2022-11-17T14:14:41.927Z,1.80
2022-11-17T14:17:49.605Z,1.80
2022-11-17T14:21:14.655Z,1.80
2022-11-17T14:24:16.592Z,1.77
2022-11-17T14:27:27.348Z,1.60
2022-11-17T14:30:28.816Z,1.58
2022-11-17T14:33:30.535Z,1.50
2022-11-17T14:36:33.306Z,1.67
2022-11-17T14:39:34.772Z,1.60
2022-11-17T14:42:36.579Z,1.63
2022-11-17T14:45:38.164Z,1.50
2022-11-17T14:48:39.617Z,1.50
2022-11-17T14:51:41.205Z,1.70
2022-11-17T14:54:43.005Z,1.60
2022-11-17T14:57:44.944Z,1.55
2022-11-17T15:00:46.396Z,1.50
2022-11-17T15:03:48.027Z,1.50
2022-11-17T15:06:49.577Z,1.50
2022-11-17T15:09:51.102Z,1.40
2022-11-17T15:12:52.644Z,1.58
2022-11-17T15:16:04.905Z,1.50
2022-11-17T15:19:06.743Z,1.42
2022-11-17T15:22:08.343Z,1.38
2022-11-17T15:25:09.883Z,1.35
2022-11-17T15:28:15.075Z,1.45
2022-11-17T15:31:20.091Z,1.40
2022-11-17T15:34:21.616Z,1.40
2022-11-17T15:37:23.149Z,1.30
2022-11-17T15:40:24.683Z,1.30
2022-11-17T15:43:30.435Z,1.30
2022-11-17T15:46:31.909Z,1.48
2022-11-17T15:49:33.464Z,1.33
2022-11-17T15:53:02.297Z,1.50
2022-11-17T15:56:02.177Z,1.30
2022-11-17T15:59:06.877Z,1.30
2022-11-17T16:02:09.744Z,1.30
2022-11-17T16:05:11.268Z,1.10
2022-11-17T16:08:13.863Z,1.40
2022-11-17T16:11:15.338Z,1.30
2022-11-17T16:14:16.894Z,1.25
2022-11-17T16:17:18.399Z,1.25
2022-11-17T16:20:19.951Z,1.10
2022-11-17T16:23:21.570Z,1.20
2022-11-17T16:26:26.442Z,1.40
2022-11-17T16:29:27.886Z,1.10
2022-11-17T16:32:31.524Z,1.40
2022-11-17T16:35:33.012Z,1.15
2022-11-17T16:38:34.494Z,1.13
2022-11-17T16:41:38.779Z,1.17
2022-11-17T16:44:40.265Z,1.20
2022-11-17T16:47:41.825Z,1.10
2022-11-17T16:50:43.325Z,1.10
2022-11-17T16:53:45.985Z,1.08
2022-11-17T16:56:47.911Z,1.20
2022-11-17T16:59:49.441Z,2.08
2022-11-17T17:02:51.008Z,2.00
2022-11-17T17:05:52.570Z,1.70
2022-11-17T17:08:55.886Z,1.55
2022-11-17T17:11:57.505Z,1.60
2022-11-17T17:14:59.140Z,1.40
2022-11-17T17:18:00.670Z,1.58
2022-11-17T17:21:02.888Z,1.40
2022-11-17T17:24:05.082Z,1.35
2022-11-17T17:27:07.154Z,1.33
2022-11-17T17:30:09.064Z,1.40
2022-11-17T17:33:10.554Z,1.80
2022-11-17T17:36:14.875Z,1.90
2022-11-17T17:39:16.787Z,2.10
2022-11-17T17:42:18.518Z,4.70
2022-11-17T17:45:20.056Z,15.27
2022-11-17T17:48:21.536Z,23.50
2022-11-17T17:51:25.003Z,30.33
2022-11-17T17:54:26.546Z,37.17
2022-11-17T17:57:32.713Z,42.65
2022-11-17T18:00:35.507Z,43.88
2022-11-17T18:03:37.911Z,47.30
2022-11-17T18:06:41.537Z,57.00
2022-11-17T18:09:42.994Z,57.15
2022-11-17T18:12:44.449Z,59.88
2022-11-17T18:15:45.925Z,57.00
2022-11-17T18:18:48.215Z,56.80
2022-11-17T18:21:49.825Z,56.60
2022-11-17T18:24:52.999Z,56.92
2022-11-17T18:27:57.458Z,53.80
2022-11-17T18:31:02.130Z,53.00
2022-11-17T18:34:13.055Z,52.40
2022-11-17T18:37:14.520Z,50.55
2022-11-17T18:40:16.146Z,49.83
2022-11-17T18:43:17.652Z,49.38
2022-11-17T18:46:23.620Z,49.33
2022-11-17T18:49:25.091Z,47.90
2022-11-17T18:52:31.245Z,43.40
2022-11-17T18:58:34.983Z,42.80
2022-11-17T19:01:38.092Z,42.08
2022-11-17T19:04:39.587Z,41.42
2022-11-17T19:07:41.157Z,40.47
2022-11-17T19:11:05.847Z,37.92
2022-11-17T19:14:07.691Z,37.30
2022-11-17T19:17:09.285Z,35.33
2022-11-17T19:20:11.309Z,35.78
2022-11-17T19:23:12.865Z,34.42
2022-11-17T19:26:20.729Z,34.20
2022-11-17T19:29:22.649Z,32.45
2022-11-17T19:32:24.758Z,31.67
2022-11-17T19:35:26.297Z,31.60
2022-11-17T19:38:27.752Z,31.20
2022-11-17T19:41:31.942Z,28.02
2022-11-17T19:44:33.410Z,27.85
2022-11-17T19:47:35.863Z,26.08
2022-11-17T19:50:37.317Z,25.65
2022-11-17T19:53:39.360Z,24.67
2022-11-17T19:56:41.019Z,24.70
2022-11-17T19:59:42.511Z,23.60
2022-11-17T20:02:44.009Z,22.92
2022-11-17T20:05:45.505Z,22.48
2022-11-17T20:08:47.520Z,21.83
2022-11-17T20:11:49.012Z,22.08
2022-11-17T20:14:50.504Z,21.38
2022-11-17T20:17:51.946Z,20.35
2022-11-17T20:20:54.428Z,20.95
2022-11-17T20:23:57.272Z,20.10
2022-11-17T20:26:58.864Z,20.98
2022-11-17T20:30:00.350Z,20.10
2022-11-17T20:33:01.856Z,20.13
2022-11-17T20:36:04.003Z,19.58
2022-11-17T20:39:07.196Z,19.58
2022-11-17T20:42:09.160Z,19.30
2022-11-17T20:45:10.855Z,18.23
2022-11-17T20:48:12.323Z,18.02
2022-11-17T20:51:16.765Z,18.50
2022-11-17T20:54:18.224Z,16.73
2022-11-17T20:57:19.714Z,17.80
2022-11-17T21:00:21.636Z,17.02
2022-11-17T21:03:24.218Z,16.70
2022-11-17T21:06:26.114Z,16.58
2022-11-17T21:09:27.657Z,16.90
2022-11-17T21:12:29.168Z,16.10
2022-11-17T21:15:30.704Z,15.93
2022-11-17T21:18:32.612Z,15.27
2022-11-17T21:21:34.400Z,15.30
2022-11-17T21:24:35.882Z,15.88
2022-11-17T21:27:37.381Z,14.60
2022-11-17T21:30:38.825Z,14.95
2022-11-17T21:33:40.736Z,14.57
2022-11-17T21:36:42.721Z,13.55
2022-11-17T21:39:44.230Z,14.68
2022-11-17T21:42:45.957Z,13.82
2022-11-17T21:45:47.464Z,13.63
2022-11-17T21:48:50.411Z,13.50
2022-11-17T21:51:51.866Z,13.38
2022-11-17T21:54:53.366Z,13.02
2022-11-17T21:57:54.901Z,12.70
2022-11-17T22:00:57.169Z,12.98
2022-11-17T22:03:58.951Z,12.90
2022-11-17T22:07:00.456Z,13.30
2022-11-17T22:10:02.050Z,12.90
2022-11-17T22:13:04.745Z,13.27
2022-11-17T22:16:10.777Z,12.40
2022-11-17T22:19:14.151Z,12.07
2022-11-17T22:22:15.839Z,12.30
2022-11-17T22:25:43.478Z,12.27
2022-11-17T22:28:38.786Z,12.10
2022-11-17T22:31:40.290Z,12.25
2022-11-17T22:34:41.775Z,11.85
2022-11-17T22:37:43.274Z,11.20
2022-11-17T22:40:44.962Z,11.40
2022-11-17T22:43:54.152Z,11.63
2022-11-17T22:46:55.775Z,10.95
2022-11-17T22:49:57.216Z,10.95
2022-11-17T22:52:59.088Z,10.48
2022-11-17T22:56:03.074Z,10.70
2022-11-17T22:59:04.752Z,10.60
2022-11-17T23:02:06.278Z,10.88
2022-11-17T23:05:07.828Z,10.68
2022-11-17T23:08:10.152Z,10.95
2022-11-17T23:14:33.686Z,10.00
2022-11-17T23:17:35.386Z,9.95
2022-11-17T23:20:36.985Z,9.88
2022-11-17T23:23:40.263Z,9.63
2022-11-17T23:26:42.456Z,9.35
2022-11-17T23:29:43.914Z,8.98
2022-11-17T23:32:45.363Z,9.63
2022-11-17T23:35:46.892Z,9.32
2022-11-17T23:38:50.133Z,9.25
2022-11-17T23:41:51.603Z,8.95
2022-11-17T23:44:53.064Z,8.48
2022-11-17T23:47:54.534Z,8.82
2022-11-17T23:50:56.018Z,8.60
2022-11-17T23:53:59.058Z,8.77
2022-11-17T23:57:01.179Z,8.43
